sensor_id;sensor_type;location;lat;lon;timestamp;temperature;humidity
32187;DHT22;18686;53.084;8.872;2023-05-16T00:01:51;12.10;99.90
32187;DHT22;18686;53.084;8.872;2023-05-16T00:04:21;12.10;99.90
32187;DHT22;18686;53.084;8.872;2023-05-16T00:06:50;12.10;99.90
32187;DHT22;18686;53.084;8.872;2023-05-16T00:09:18;12.10;99.90
32187;DHT22;18686;53.084;8.872;2023-05-16T00:11:47;12.10;99.90
32187;DHT22;18686;53.084;8.872;2023-05-16T00:14:16;12.00;99.90
32187;DHT22;18686;53.084;8.872;2023-05-16T00:16:45;12.00;99.90
32187;DHT22;18686;53.084;8.872;2023-05-16T00:19:13;12.00;99.90
32187;DHT22;18686;53.084;8.872;2023-05-16T00:21:43;11.90;99.90
32187;DHT22;18686;53.084;8.872;2023-05-16T00:24:11;11.90;99.90
32187;DHT22;18686;53.084;8.872;2023-05-16T00:26:40;11.90;99.90
32187;DHT22;18686;53.084;8.872;2023-05-16T00:29:08;11.80;99.90
32187;DHT22;18686;53.084;8.872;2023-05-16T00:31:36;11.70;99.90
32187;DHT22;18686;53.084;8.872;2023-05-16T00:34:05;11.70;99.90
32187;DHT22;18686;53.084;8.872;2023-05-16T00:36:33;11.60;99.90
32187;DHT22;18686;53.084;8.872;2023-05-16T00:39:03;11.60;99.90
32187;DHT22;18686;53.084;8.872;2023-05-16T00:41:32;11.60;99.90
32187;DHT22;18686;53.084;8.872;2023-05-16T00:44:00;11.50;99.90
32187;DHT22;18686;53.084;8.872;2023-05-16T00:46:28;11.50;99.90
32187;DHT22;18686;53.084;8.872;2023-05-16T00:48:57;11.40;99.90
32187;DHT22;18686;53.084;8.872;2023-05-16T00:51:25;11.30;99.90
32187;DHT22;18686;53.084;8.872;2023-05-16T00:53:54;11.30;99.90
32187;DHT22;18686;53.084;8.872;2023-05-16T00:56:25;11.20;99.90
32187;DHT22;18686;53.084;8.872;2023-05-16T00:58:53;11.10;99.90
32187;DHT22;18686;53.084;8.872;2023-05-16T01:01:23;11.10;99.90
32187;DHT22;18686;53.084;8.872;2023-05-16T01:03:53;11.10;99.90
32187;DHT22;18686;53.084;8.872;2023-05-16T01:06:22;11.10;99.90
32187;DHT22;18686;53.084;8.872;2023-05-16T01:08:50;11.10;99.90
32187;DHT22;18686;53.084;8.872;2023-05-16T01:11:27;11.10;99.90
32187;DHT22;18686;53.084;8.872;2023-05-16T01:14:04;11.10;99.90
32187;DHT22;18686;53.084;8.872;2023-05-16T01:16:41;11.20;99.90
32187;DHT22;18686;53.084;8.872;2023-05-16T01:19:16;11.20;99.90
32187;DHT22;18686;53.084;8.872;2023-05-16T01:21:52;11.20;99.90
32187;DHT22;18686;53.084;8.872;2023-05-16T01:24:32;11.20;99.90
32187;DHT22;18686;53.084;8.872;2023-05-16T01:27:03;11.20;99.90
32187;DHT22;18686;53.084;8.872;2023-05-16T01:29:32;11.30;99.90
32187;DHT22;18686;53.084;8.872;2023-05-16T01:32:01;11.30;99.90
32187;DHT22;18686;53.084;8.872;2023-05-16T01:34:29;11.30;99.90
32187;DHT22;18686;53.084;8.872;2023-05-16T01:37:04;11.30;99.90
32187;DHT22;18686;53.084;8.872;2023-05-16T01:39:42;11.30;99.90
32187;DHT22;18686;53.084;8.872;2023-05-16T01:42:14;11.30;99.90
32187;DHT22;18686;53.084;8.872;2023-05-16T01:44:45;11.30;99.90
32187;DHT22;18686;53.084;8.872;2023-05-16T01:47:16;11.30;99.90
32187;DHT22;18686;53.084;8.872;2023-05-16T01:49:53;11.40;99.90
32187;DHT22;18686;53.084;8.872;2023-05-16T01:52:27;11.40;99.90
32187;DHT22;18686;53.084;8.872;2023-05-16T01:54:59;11.40;99.90
32187;DHT22;18686;53.084;8.872;2023-05-16T01:57:31;11.40;99.90
32187;DHT22;18686;53.084;8.872;2023-05-16T02:00:00;11.40;99.90
32187;DHT22;18686;53.084;8.872;2023-05-16T02:02:30;11.40;99.90
32187;DHT22;18686;53.084;8.872;2023-05-16T02:04:58;11.40;99.90
32187;DHT22;18686;53.084;8.872;2023-05-16T02:07:26;11.40;99.90
32187;DHT22;18686;53.084;8.872;2023-05-16T02:09:55;11.40;99.90
32187;DHT22;18686;53.084;8.872;2023-05-16T02:12:23;11.40;99.90
32187;DHT22;18686;53.084;8.872;2023-05-16T02:14:53;11.40;99.90
32187;DHT22;18686;53.084;8.872;2023-05-16T02:17:21;11.40;99.90
32187;DHT22;18686;53.084;8.872;2023-05-16T02:19:49;11.40;99.90
32187;DHT22;18686;53.084;8.872;2023-05-16T02:22:18;11.40;99.90
32187;DHT22;18686;53.084;8.872;2023-05-16T02:24:46;11.40;99.90
32187;DHT22;18686;53.084;8.872;2023-05-16T02:27:14;11.40;99.90
32187;DHT22;18686;53.084;8.872;2023-05-16T02:29:42;11.50;99.90
32187;DHT22;18686;53.084;8.872;2023-05-16T02:32:12;11.50;99.90
32187;DHT22;18686;53.084;8.872;2023-05-16T02:34:40;11.40;99.90
32187;DHT22;18686;53.084;8.872;2023-05-16T02:37:08;11.50;99.90
32187;DHT22;18686;53.084;8.872;2023-05-16T02:39:57;11.40;99.90
32187;DHT22;18686;53.084;8.872;2023-05-16T02:42:26;11.40;99.90
32187;DHT22;18686;53.084;8.872;2023-05-16T02:44:55;11.40;99.90
32187;DHT22;18686;53.084;8.872;2023-05-16T02:47:24;11.40;99.90
32187;DHT22;18686;53.084;8.872;2023-05-16T02:49:55;11.40;99.90
32187;DHT22;18686;53.084;8.872;2023-05-16T02:52:23;11.40;99.90
32187;DHT22;18686;53.084;8.872;2023-05-16T02:54:52;11.40;99.90
32187;DHT22;18686;53.084;8.872;2023-05-16T02:57:23;11.30;99.90
32187;DHT22;18686;53.084;8.872;2023-05-16T02:59:51;11.30;99.90
32187;DHT22;18686;53.084;8.872;2023-05-16T03:02:19;11.20;99.90
32187;DHT22;18686;53.084;8.872;2023-05-16T03:04:49;11.10;99.90
32187;DHT22;18686;53.084;8.872;2023-05-16T03:07:17;11.10;99.90
32187;DHT22;18686;53.084;8.872;2023-05-16T03:09:45;11.00;99.90
32187;DHT22;18686;53.084;8.872;2023-05-16T03:12:31;11.00;99.90
32187;DHT22;18686;53.084;8.872;2023-05-16T03:15:00;10.90;99.90
32187;DHT22;18686;53.084;8.872;2023-05-16T03:17:28;10.70;99.90
32187;DHT22;18686;53.084;8.872;2023-05-16T03:19:59;10.60;99.90
32187;DHT22;18686;53.084;8.872;2023-05-16T03:22:27;10.50;99.90
32187;DHT22;18686;53.084;8.872;2023-05-16T03:24:55;10.40;99.90
32187;DHT22;18686;53.084;8.872;2023-05-16T03:27:26;10.30;99.90
32187;DHT22;18686;53.084;8.872;2023-05-16T03:29:54;10.20;99.90
32187;DHT22;18686;53.084;8.872;2023-05-16T03:32:22;10.10;99.90
32187;DHT22;18686;53.084;8.872;2023-05-16T03:34:50;10.10;99.90
32187;DHT22;18686;53.084;8.872;2023-05-16T03:37:20;10.00;99.90
32187;DHT22;18686;53.084;8.872;2023-05-16T03:39:48;9.90;99.90
32187;DHT22;18686;53.084;8.872;2023-05-16T03:42:17;9.90;99.90
32187;DHT22;18686;53.084;8.872;2023-05-16T03:44:45;9.80;99.90
32187;DHT22;18686;53.084;8.872;2023-05-16T03:47:13;9.70;99.90
32187;DHT22;18686;53.084;8.872;2023-05-16T03:49:41;9.70;99.90
32187;DHT22;18686;53.084;8.872;2023-05-16T03:52:10;9.60;99.90
32187;DHT22;18686;53.084;8.872;2023-05-16T03:54:39;9.60;99.90
32187;DHT22;18686;53.084;8.872;2023-05-16T03:57:07;9.60;99.90
32187;DHT22;18686;53.084;8.872;2023-05-16T03:59:36;9.70;99.90
32187;DHT22;18686;53.084;8.872;2023-05-16T04:02:05;9.70;99.90
32187;DHT22;18686;53.084;8.872;2023-05-16T04:04:34;9.80;99.90
32187;DHT22;18686;53.084;8.872;2023-05-16T04:07:02;9.90;99.90
32187;DHT22;18686;53.084;8.872;2023-05-16T04:09:30;9.90;99.90
32187;DHT22;18686;53.084;8.872;2023-05-16T04:12:00;9.90;99.90
32187;DHT22;18686;53.084;8.872;2023-05-16T04:14:29;9.90;99.90
32187;DHT22;18686;53.084;8.872;2023-05-16T04:16:57;9.90;99.90
32187;DHT22;18686;53.084;8.872;2023-05-16T04:19:26;10.00;99.90
32187;DHT22;18686;53.084;8.872;2023-05-16T04:21:54;10.00;99.90
32187;DHT22;18686;53.084;8.872;2023-05-16T04:24:22;10.00;99.90
32187;DHT22;18686;53.084;8.872;2023-05-16T04:26:52;9.90;99.90
32187;DHT22;18686;53.084;8.872;2023-05-16T04:29:22;9.90;99.90
32187;DHT22;18686;53.084;8.872;2023-05-16T04:31:50;9.90;99.90
32187;DHT22;18686;53.084;8.872;2023-05-16T04:34:18;9.90;99.90
32187;DHT22;18686;53.084;8.872;2023-05-16T04:36:47;9.90;99.90
32187;DHT22;18686;53.084;8.872;2023-05-16T04:39:15;9.90;99.90
32187;DHT22;18686;53.084;8.872;2023-05-16T04:41:43;9.90;99.90
32187;DHT22;18686;53.084;8.872;2023-05-16T04:44:11;9.80;99.90
32187;DHT22;18686;53.084;8.872;2023-05-16T04:46:41;9.80;99.90
32187;DHT22;18686;53.084;8.872;2023-05-16T04:49:09;9.70;99.90
32187;DHT22;18686;53.084;8.872;2023-05-16T04:51:38;9.70;99.90
32187;DHT22;18686;53.084;8.872;2023-05-16T04:54:06;9.70;99.90
32187;DHT22;18686;53.084;8.872;2023-05-16T04:56:34;9.60;99.90
32187;DHT22;18686;53.084;8.872;2023-05-16T04:59:02;9.60;99.90
32187;DHT22;18686;53.084;8.872;2023-05-16T05:01:31;9.60;99.90
32187;DHT22;18686;53.084;8.872;2023-05-16T05:04:01;9.60;99.90
32187;DHT22;18686;53.084;8.872;2023-05-16T05:06:29;9.60;99.90
32187;DHT22;18686;53.084;8.872;2023-05-16T05:08:58;9.50;99.90
32187;DHT22;18686;53.084;8.872;2023-05-16T05:11:28;9.60;99.90
32187;DHT22;18686;53.084;8.872;2023-05-16T05:13:56;9.60;99.90
32187;DHT22;18686;53.084;8.872;2023-05-16T05:16:24;9.70;99.90
32187;DHT22;18686;53.084;8.872;2023-05-16T05:18:52;9.70;99.90
32187;DHT22;18686;53.084;8.872;2023-05-16T05:21:22;9.80;99.90
32187;DHT22;18686;53.084;8.872;2023-05-16T05:23:51;9.90;99.90
32187;DHT22;18686;53.084;8.872;2023-05-16T05:26:19;10.00;99.90
32187;DHT22;18686;53.084;8.872;2023-05-16T05:28:48;10.10;99.90
32187;DHT22;18686;53.084;8.872;2023-05-16T05:31:30;10.20;99.90
32187;DHT22;18686;53.084;8.872;2023-05-16T05:33:59;10.30;99.90
32187;DHT22;18686;53.084;8.872;2023-05-16T05:36:29;10.40;99.90
32187;DHT22;18686;53.084;8.872;2023-05-16T05:38:57;10.50;99.90
32187;DHT22;18686;53.084;8.872;2023-05-16T05:41:26;10.60;99.90
32187;DHT22;18686;53.084;8.872;2023-05-16T05:43:54;10.70;99.90
32187;DHT22;18686;53.084;8.872;2023-05-16T05:46:23;10.80;99.90
32187;DHT22;18686;53.084;8.872;2023-05-16T05:48:51;10.90;99.90
32187;DHT22;18686;53.084;8.872;2023-05-16T05:51:20;10.90;99.90
32187;DHT22;18686;53.084;8.872;2023-05-16T05:53:49;11.00;99.90
32187;DHT22;18686;53.084;8.872;2023-05-16T05:56:17;11.20;99.90
32187;DHT22;18686;53.084;8.872;2023-05-16T05:58:47;11.30;99.90
32187;DHT22;18686;53.084;8.872;2023-05-16T06:01:15;11.50;99.90
32187;DHT22;18686;53.084;8.872;2023-05-16T06:03:45;11.60;99.90
32187;DHT22;18686;53.084;8.872;2023-05-16T06:06:14;11.80;99.90
32187;DHT22;18686;53.084;8.872;2023-05-16T06:08:42;12.00;99.90
32187;DHT22;18686;53.084;8.872;2023-05-16T06:11:11;12.10;99.90
32187;DHT22;18686;53.084;8.872;2023-05-16T06:13:40;12.30;99.90
32187;DHT22;18686;53.084;8.872;2023-05-16T06:16:08;12.40;99.90
32187;DHT22;18686;53.084;8.872;2023-05-16T06:18:36;12.60;98.40
32187;DHT22;18686;53.084;8.872;2023-05-16T06:21:05;12.70;97.70
32187;DHT22;18686;53.084;8.872;2023-05-16T06:23:33;12.80;97.20
32187;DHT22;18686;53.084;8.872;2023-05-16T06:26:02;13.00;97.20
32187;DHT22;18686;53.084;8.872;2023-05-16T06:28:31;13.20;96.00
32187;DHT22;18686;53.084;8.872;2023-05-16T06:31:00;13.30;95.00
32187;DHT22;18686;53.084;8.872;2023-05-16T06:33:28;13.50;94.70
32187;DHT22;18686;53.084;8.872;2023-05-16T06:35:57;13.60;93.60
32187;DHT22;18686;53.084;8.872;2023-05-16T06:38:25;13.80;92.70
32187;DHT22;18686;53.084;8.872;2023-05-16T06:40:53;13.90;92.50
32187;DHT22;18686;53.084;8.872;2023-05-16T06:43:21;13.90;91.90
32187;DHT22;18686;53.084;8.872;2023-05-16T06:45:51;14.10;90.80
32187;DHT22;18686;53.084;8.872;2023-05-16T06:48:19;14.30;90.40
32187;DHT22;18686;53.084;8.872;2023-05-16T06:50:48;14.60;88.90
32187;DHT22;18686;53.084;8.872;2023-05-16T06:53:18;14.90;87.00
32187;DHT22;18686;53.084;8.872;2023-05-16T06:55:46;15.30;84.10
32187;DHT22;18686;53.084;8.872;2023-05-16T06:58:15;15.60;79.20
32187;DHT22;18686;53.084;8.872;2023-05-16T07:00:43;15.90;77.10
32187;DHT22;18686;53.084;8.872;2023-05-16T07:03:13;16.20;74.80
32187;DHT22;18686;53.084;8.872;2023-05-16T07:05:41;16.20;70.10
32187;DHT22;18686;53.084;8.872;2023-05-16T07:08:10;16.20;70.50
32187;DHT22;18686;53.084;8.872;2023-05-16T07:10:39;16.30;69.60
32187;DHT22;18686;53.084;8.872;2023-05-16T07:13:07;16.40;68.00
32187;DHT22;18686;53.084;8.872;2023-05-16T07:15:35;16.50;68.50
32187;DHT22;18686;53.084;8.872;2023-05-16T07:18:03;16.70;67.50
32187;DHT22;18686;53.084;8.872;2023-05-16T07:20:33;16.80;65.70
32187;DHT22;18686;53.084;8.872;2023-05-16T07:23:01;16.90;64.00
32187;DHT22;18686;53.084;8.872;2023-05-16T07:25:30;16.70;63.80
32187;DHT22;18686;53.084;8.872;2023-05-16T07:27:59;16.40;63.20
32187;DHT22;18686;53.084;8.872;2023-05-16T07:30:27;16.20;63.40
32187;DHT22;18686;53.084;8.872;2023-05-16T07:32:55;16.20;64.20
32187;DHT22;18686;53.084;8.872;2023-05-16T07:35:26;16.30;64.90
32187;DHT22;18686;53.084;8.872;2023-05-16T07:37:55;16.60;64.70
32187;DHT22;18686;53.084;8.872;2023-05-16T07:40:24;17.00;63.00
32187;DHT22;18686;53.084;8.872;2023-05-16T07:42:55;17.60;60.10
32187;DHT22;18686;53.084;8.872;2023-05-16T07:45:23;17.80;58.60
32187;DHT22;18686;53.084;8.872;2023-05-16T07:47:52;17.90;57.50
32187;DHT22;18686;53.084;8.872;2023-05-16T07:50:20;17.70;55.20
32187;DHT22;18686;53.084;8.872;2023-05-16T07:52:48;17.50;56.00
32187;DHT22;18686;53.084;8.872;2023-05-16T07:55:18;17.20;57.10
32187;DHT22;18686;53.084;8.872;2023-05-16T07:57:48;16.90;58.60
32187;DHT22;18686;53.084;8.872;2023-05-16T08:00:18;16.50;60.70
32187;DHT22;18686;53.084;8.872;2023-05-16T08:02:47;16.10;65.50
32187;DHT22;18686;53.084;8.872;2023-05-16T08:05:16;15.60;66.10
32187;DHT22;18686;53.084;8.872;2023-05-16T08:07:44;15.20;68.00
32187;DHT22;18686;53.084;8.872;2023-05-16T08:10:12;15.00;69.10
32187;DHT22;18686;53.084;8.872;2023-05-16T08:12:42;14.80;72.80
32187;DHT22;18686;53.084;8.872;2023-05-16T08:15:10;14.70;73.80
32187;DHT22;18686;53.084;8.872;2023-05-16T08:17:39;14.90;75.20
32187;DHT22;18686;53.084;8.872;2023-05-16T08:20:08;15.10;75.80
32187;DHT22;18686;53.084;8.872;2023-05-16T08:22:36;15.30;75.90
32187;DHT22;18686;53.084;8.872;2023-05-16T08:25:05;15.50;75.10
32187;DHT22;18686;53.084;8.872;2023-05-16T08:27:34;15.80;74.80
32187;DHT22;18686;53.084;8.872;2023-05-16T08:30:05;16.10;72.70
32187;DHT22;18686;53.084;8.872;2023-05-16T08:32:34;16.50;71.70
32187;DHT22;18686;53.084;8.872;2023-05-16T08:35:03;17.10;68.10
32187;DHT22;18686;53.084;8.872;2023-05-16T08:37:32;17.50;65.30
32187;DHT22;18686;53.084;8.872;2023-05-16T08:40:00;17.40;64.00
32187;DHT22;18686;53.084;8.872;2023-05-16T08:42:32;17.10;60.60
32187;DHT22;18686;53.084;8.872;2023-05-16T08:45:01;16.80;60.90
32187;DHT22;18686;53.084;8.872;2023-05-16T08:47:31;16.50;60.60
32187;DHT22;18686;53.084;8.872;2023-05-16T08:50:02;16.50;60.90
32187;DHT22;18686;53.084;8.872;2023-05-16T08:52:31;16.80;60.50
32187;DHT22;18686;53.084;8.872;2023-05-16T08:55:02;17.30;58.30
32187;DHT22;18686;53.084;8.872;2023-05-16T08:57:38;17.90;58.20
32187;DHT22;18686;53.084;8.872;2023-05-16T09:00:09;18.60;54.70
32187;DHT22;18686;53.084;8.872;2023-05-16T09:02:42;19.20;51.90
32187;DHT22;18686;53.084;8.872;2023-05-16T09:05:13;19.90;48.90
32187;DHT22;18686;53.084;8.872;2023-05-16T09:07:42;20.40;43.60
32187;DHT22;18686;53.084;8.872;2023-05-16T09:10:11;20.60;44.30
32187;DHT22;18686;53.084;8.872;2023-05-16T09:12:40;21.10;43.80
32187;DHT22;18686;53.084;8.872;2023-05-16T09:15:12;21.40;43.20
32187;DHT22;18686;53.084;8.872;2023-05-16T09:17:43;21.60;42.90
32187;DHT22;18686;53.084;8.872;2023-05-16T09:20:14;21.70;41.70
32187;DHT22;18686;53.084;8.872;2023-05-16T09:22:50;22.00;41.40
32187;DHT22;18686;53.084;8.872;2023-05-16T09:25:21;22.40;40.50
32187;DHT22;18686;53.084;8.872;2023-05-16T09:27:53;22.60;39.60
32187;DHT22;18686;53.084;8.872;2023-05-16T09:30:22;22.40;38.70
32187;DHT22;18686;53.084;8.872;2023-05-16T09:32:52;21.80;38.10
32187;DHT22;18686;53.084;8.872;2023-05-16T09:35:21;21.20;38.50
32187;DHT22;18686;53.084;8.872;2023-05-16T09:38:13;20.90;39.50
32187;DHT22;18686;53.084;8.872;2023-05-16T09:40:42;21.00;39.40
32187;DHT22;18686;53.084;8.872;2023-05-16T09:43:14;21.20;39.60
32187;DHT22;18686;53.084;8.872;2023-05-16T09:45:45;21.60;38.80
32187;DHT22;18686;53.084;8.872;2023-05-16T09:48:17;22.00;38.80
32187;DHT22;18686;53.084;8.872;2023-05-16T09:50:49;22.20;38.10
32187;DHT22;18686;53.084;8.872;2023-05-16T09:53:24;22.10;37.60
32187;DHT22;18686;53.084;8.872;2023-05-16T09:56:01;22.10;37.50
32187;DHT22;18686;53.084;8.872;2023-05-16T09:58:30;22.20;38.10
32187;DHT22;18686;53.084;8.872;2023-05-16T10:00:58;22.40;38.40
32187;DHT22;18686;53.084;8.872;2023-05-16T10:03:29;22.50;39.30
32187;DHT22;18686;53.084;8.872;2023-05-16T10:05:59;22.20;38.10
32187;DHT22;18686;53.084;8.872;2023-05-16T10:08:27;21.70;38.90
32187;DHT22;18686;53.084;8.872;2023-05-16T10:10:58;21.00;40.30
32187;DHT22;18686;53.084;8.872;2023-05-16T10:13:30;20.30;41.70
32187;DHT22;18686;53.084;8.872;2023-05-16T10:16:05;19.50;44.60
32187;DHT22;18686;53.084;8.872;2023-05-16T10:18:34;18.90;45.10
32187;DHT22;18686;53.084;8.872;2023-05-16T10:21:05;18.70;47.40
32187;DHT22;18686;53.084;8.872;2023-05-16T10:23:40;19.20;46.70
32187;DHT22;18686;53.084;8.872;2023-05-16T10:26:10;19.90;44.10
32187;DHT22;18686;53.084;8.872;2023-05-16T10:28:41;20.20;42.90
32187;DHT22;18686;53.084;8.872;2023-05-16T10:31:10;20.00;43.00
32187;DHT22;18686;53.084;8.872;2023-05-16T10:33:40;19.70;43.50
32187;DHT22;18686;53.084;8.872;2023-05-16T10:36:09;19.30;44.60
32187;DHT22;18686;53.084;8.872;2023-05-16T10:38:38;18.80;44.60
32187;DHT22;18686;53.084;8.872;2023-05-16T10:41:07;18.60;45.90
32187;DHT22;18686;53.084;8.872;2023-05-16T10:43:36;18.60;46.20
32187;DHT22;18686;53.084;8.872;2023-05-16T10:46:06;19.10;45.00
32187;DHT22;18686;53.084;8.872;2023-05-16T10:48:37;20.10;44.70
32187;DHT22;18686;53.084;8.872;2023-05-16T10:51:33;21.20;42.60
32187;DHT22;18686;53.084;8.872;2023-05-16T10:54:08;24.00;39.40
32187;DHT22;18686;53.084;8.872;2023-05-16T10:56:36;26.70;36.40
32187;DHT22;18686;53.084;8.872;2023-05-16T10:59:23;29.50;33.00
32187;DHT22;18686;53.084;8.872;2023-05-16T11:01:55;31.00;30.40
32187;DHT22;18686;53.084;8.872;2023-05-16T11:04:50;31.40;29.40
32187;DHT22;18686;53.084;8.872;2023-05-16T11:07:23;30.60;29.10
32187;DHT22;18686;53.084;8.872;2023-05-16T11:10:05;29.30;29.20
32187;DHT22;18686;53.084;8.872;2023-05-16T11:12:52;27.70;29.80
32187;DHT22;18686;53.084;8.872;2023-05-16T11:15:23;26.00;30.90
32187;DHT22;18686;53.084;8.872;2023-05-16T11:18:04;24.50;32.30
32187;DHT22;18686;53.084;8.872;2023-05-16T11:20:34;23.30;32.90
32187;DHT22;18686;53.084;8.872;2023-05-16T11:23:19;22.10;35.00
32187;DHT22;18686;53.084;8.872;2023-05-16T11:25:52;21.20;36.50
32187;DHT22;18686;53.084;8.872;2023-05-16T11:28:23;20.70;38.30
32187;DHT22;18686;53.084;8.872;2023-05-16T11:30:52;20.90;38.30
32187;DHT22;18686;53.084;8.872;2023-05-16T11:33:23;22.70;36.80
32187;DHT22;18686;53.084;8.872;2023-05-16T11:36:05;25.80;34.00
32187;DHT22;18686;53.084;8.872;2023-05-16T11:38:43;29.20;30.60
32187;DHT22;18686;53.084;8.872;2023-05-16T11:41:11;32.30;29.00
32187;DHT22;18686;53.084;8.872;2023-05-16T11:43:43;33.10;27.40
32187;DHT22;18686;53.084;8.872;2023-05-16T11:46:13;32.60;27.20
32187;DHT22;18686;53.084;8.872;2023-05-16T11:48:42;31.30;26.80
32187;DHT22;18686;53.084;8.872;2023-05-16T11:51:11;29.60;27.80
32187;DHT22;18686;53.084;8.872;2023-05-16T11:53:40;27.90;29.40
32187;DHT22;18686;53.084;8.872;2023-05-16T11:56:10;26.60;30.40
32187;DHT22;18686;53.084;8.872;2023-05-16T11:58:38;25.20;32.20
32187;DHT22;18686;53.084;8.872;2023-05-16T12:01:08;23.80;33.80
32187;DHT22;18686;53.084;8.872;2023-05-16T12:03:37;22.50;35.20
32187;DHT22;18686;53.084;8.872;2023-05-16T12:06:06;21.50;37.50
32187;DHT22;18686;53.084;8.872;2023-05-16T12:08:34;20.50;38.60
32187;DHT22;18686;53.084;8.872;2023-05-16T12:11:02;19.60;40.40
32187;DHT22;18686;53.084;8.872;2023-05-16T12:13:32;19.00;41.80
32187;DHT22;18686;53.084;8.872;2023-05-16T12:16:01;18.20;44.30
32187;DHT22;18686;53.084;8.872;2023-05-16T12:18:29;17.70;44.00
32187;DHT22;18686;53.084;8.872;2023-05-16T12:20:58;18.90;44.10
32187;DHT22;18686;53.084;8.872;2023-05-16T12:23:26;21.70;40.90
32187;DHT22;18686;53.084;8.872;2023-05-16T12:25:56;25.60;35.30
32187;DHT22;18686;53.084;8.872;2023-05-16T12:28:31;28.90;31.00
32187;DHT22;18686;53.084;8.872;2023-05-16T12:31:01;32.20;28.90
32187;DHT22;18686;53.084;8.872;2023-05-16T12:33:30;34.90;27.00
32187;DHT22;18686;53.084;8.872;2023-05-16T12:36:00;37.20;25.40
32187;DHT22;18686;53.084;8.872;2023-05-16T12:38:30;39.00;24.60
32187;DHT22;18686;53.084;8.872;2023-05-16T12:40:59;40.20;23.70
32187;DHT22;18686;53.084;8.872;2023-05-16T12:43:27;39.40;23.20
32187;DHT22;18686;53.084;8.872;2023-05-16T12:45:57;37.80;23.50
32187;DHT22;18686;53.084;8.872;2023-05-16T12:48:31;35.10;24.90
32187;DHT22;18686;53.084;8.872;2023-05-16T12:51:09;31.90;26.30
32187;DHT22;18686;53.084;8.872;2023-05-16T12:53:43;28.90;27.60
32187;DHT22;18686;53.084;8.872;2023-05-16T12:56:27;26.60;28.90
32187;DHT22;18686;53.084;8.872;2023-05-16T12:58:56;24.80;30.40
32187;DHT22;18686;53.084;8.872;2023-05-16T13:01:25;25.10;31.80
32187;DHT22;18686;53.084;8.872;2023-05-16T13:03:54;26.80;30.40
32187;DHT22;18686;53.084;8.872;2023-05-16T13:06:22;29.30;29.00
32187;DHT22;18686;53.084;8.872;2023-05-16T13:08:50;32.10;27.30
32187;DHT22;18686;53.084;8.872;2023-05-16T13:11:19;33.40;25.60
32187;DHT22;18686;53.084;8.872;2023-05-16T13:13:47;33.50;26.00
32187;DHT22;18686;53.084;8.872;2023-05-16T13:16:16;33.50;25.80
32187;DHT22;18686;53.084;8.872;2023-05-16T13:18:45;32.80;25.70
32187;DHT22;18686;53.084;8.872;2023-05-16T13:21:14;31.70;26.40
32187;DHT22;18686;53.084;8.872;2023-05-16T13:23:42;31.00;26.90
32187;DHT22;18686;53.084;8.872;2023-05-16T13:26:10;30.30;27.20
32187;DHT22;18686;53.084;8.872;2023-05-16T13:28:39;29.80;27.80
32187;DHT22;18686;53.084;8.872;2023-05-16T13:31:07;30.20;27.90
32187;DHT22;18686;53.084;8.872;2023-05-16T13:33:35;30.70;27.90
32187;DHT22;18686;53.084;8.872;2023-05-16T13:36:05;30.80;27.20
32187;DHT22;18686;53.084;8.872;2023-05-16T13:38:35;30.20;27.50
32187;DHT22;18686;53.084;8.872;2023-05-16T13:41:03;30.60;27.50
32187;DHT22;18686;53.084;8.872;2023-05-16T13:43:33;32.30;27.10
32187;DHT22;18686;53.084;8.872;2023-05-16T13:46:01;33.90;26.00
32187;DHT22;18686;53.084;8.872;2023-05-16T13:48:30;35.50;25.70
32187;DHT22;18686;53.084;8.872;2023-05-16T13:50:58;36.20;24.70
32187;DHT22;18686;53.084;8.872;2023-05-16T13:53:28;35.90;24.40
32187;DHT22;18686;53.084;8.872;2023-05-16T13:55:56;35.90;24.20
32187;DHT22;18686;53.084;8.872;2023-05-16T13:58:26;35.20;24.20
32187;DHT22;18686;53.084;8.872;2023-05-16T14:00:55;34.30;24.50
32187;DHT22;18686;53.084;8.872;2023-05-16T14:03:23;34.00;25.00
32187;DHT22;18686;53.084;8.872;2023-05-16T14:05:51;34.20;24.80
32187;DHT22;18686;53.084;8.872;2023-05-16T14:08:20;33.70;24.90
32187;DHT22;18686;53.084;8.872;2023-05-16T14:10:49;33.30;24.90
32187;DHT22;18686;53.084;8.872;2023-05-16T14:13:18;32.80;24.70
32187;DHT22;18686;53.084;8.872;2023-05-16T14:15:46;31.90;25.10
32187;DHT22;18686;53.084;8.872;2023-05-16T14:18:15;31.70;25.70
32187;DHT22;18686;53.084;8.872;2023-05-16T14:20:43;31.80;25.60
32187;DHT22;18686;53.084;8.872;2023-05-16T14:23:11;31.80;25.50
32187;DHT22;18686;53.084;8.872;2023-05-16T14:25:40;30.80;25.30
32187;DHT22;18686;53.084;8.872;2023-05-16T14:28:09;29.70;26.10
32187;DHT22;18686;53.084;8.872;2023-05-16T14:30:38;28.40;26.50
32187;DHT22;18686;53.084;8.872;2023-05-16T14:33:06;27.20;27.30
32187;DHT22;18686;53.084;8.872;2023-05-16T14:35:34;26.00;28.90
32187;DHT22;18686;53.084;8.872;2023-05-16T14:38:04;24.90;30.00
32187;DHT22;18686;53.084;8.872;2023-05-16T14:40:33;24.00;30.80
32187;DHT22;18686;53.084;8.872;2023-05-16T14:43:01;23.40;31.60
32187;DHT22;18686;53.084;8.872;2023-05-16T14:45:32;22.70;33.90
32187;DHT22;18686;53.084;8.872;2023-05-16T14:48:00;22.20;34.30
32187;DHT22;18686;53.084;8.872;2023-05-16T14:50:29;21.70;35.30
32187;DHT22;18686;53.084;8.872;2023-05-16T14:52:57;21.20;36.70
32187;DHT22;18686;53.084;8.872;2023-05-16T14:55:26;20.50;38.80
32187;DHT22;18686;53.084;8.872;2023-05-16T14:57:57;20.10;38.60
32187;DHT22;18686;53.084;8.872;2023-05-16T15:00:26;19.80;39.00
32187;DHT22;18686;53.084;8.872;2023-05-16T15:02:56;19.60;39.60
32187;DHT22;18686;53.084;8.872;2023-05-16T15:05:24;19.20;41.20
32187;DHT22;18686;53.084;8.872;2023-05-16T15:07:55;18.90;41.50
32187;DHT22;18686;53.084;8.872;2023-05-16T15:10:23;18.50;42.90
32187;DHT22;18686;53.084;8.872;2023-05-16T15:12:52;18.10;43.90
32187;DHT22;18686;53.084;8.872;2023-05-16T15:15:20;17.80;44.40
32187;DHT22;18686;53.084;8.872;2023-05-16T15:17:48;17.60;45.80
32187;DHT22;18686;53.084;8.872;2023-05-16T15:20:18;17.60;45.60
32187;DHT22;18686;53.084;8.872;2023-05-16T15:22:48;17.50;45.30
32187;DHT22;18686;53.084;8.872;2023-05-16T15:25:17;17.30;45.60
32187;DHT22;18686;53.084;8.872;2023-05-16T15:27:45;17.20;45.50
32187;DHT22;18686;53.084;8.872;2023-05-16T15:30:13;17.10;46.70
32187;DHT22;18686;53.084;8.872;2023-05-16T15:32:42;16.90;46.90
32187;DHT22;18686;53.084;8.872;2023-05-16T15:35:10;16.70;48.60
32187;DHT22;18686;53.084;8.872;2023-05-16T15:37:40;16.60;51.50
32187;DHT22;18686;53.084;8.872;2023-05-16T15:40:10;16.60;50.60
32187;DHT22;18686;53.084;8.872;2023-05-16T15:42:39;16.70;50.60
32187;DHT22;18686;53.084;8.872;2023-05-16T15:45:10;16.70;50.60
32187;DHT22;18686;53.084;8.872;2023-05-16T15:47:40;16.70;50.60
32187;DHT22;18686;53.084;8.872;2023-05-16T15:50:09;16.50;51.00